Terminal Aerodrome Forecast
Issued by NWS El Paso, TX

Home | Current Version | Previous Version | Text Only | Print | Product List | Glossary On
Versions: 1 2 3 4 5 6 7 8 9 10 11 12 13
000
FTUS44 KEPZ 031132
TAFELP
TAF
KELP 031132Z 0312/0412 32007KT P6SM FEW080 BKN120 OVC250
     FM032100 28011G22KT P6SM SCT080 SCT110 BKN150
     FM040100 29009KT P6SM VCTS SCT080CB BKN150 OVC250
     FM040600 27008KT P6SM FEW080 BKN120=

USA.gov is the U.S. government's official web portal to all federal, state and local government web resources and services.